Time;durP1;ratioP1;P1;durP2;ratioP2;P2;SDS_P1;SDS_P2;PMS_P1;PMS_P2;Temp;Humidity;BMP_temperature;BMP_pressure;BME280_temperature;BME280_humidity;BME280_pressure;Samples;Min_cycle;Max_cycle;Signal;HPM_P1;HPM_P2
2023/07/07 00:00:51;;;;;;;5.85;3.80;;;;;;;;;;5092190;28;20074;-77
2023/07/07 00:03:18;;;;;;;5.18;3.58;;;;;;;;;;5092451;28;20489;-77
2023/07/07 00:05:44;;;;;;;7.28;3.55;;;;;;;;;;5091912;28;20055;-77
2023/07/07 00:08:11;;;;;;;6.32;3.30;;;;;;;;;;5075567;28;20527;-77
2023/07/07 00:10:38;;;;;;;7.30;3.17;;;;;;;;;;5092227;28;20052;-77
2023/07/07 00:13:04;;;;;;;6.43;3.53;;;;;;;;;;5084198;28;20050;-77
2023/07/07 00:15:30;;;;;;;6.28;2.78;;;;;;;;;;5091960;28;20054;-77
2023/07/07 00:17:57;;;;;;;6.93;2.85;;;;;;;;;;5092752;28;20708;-77
2023/07/07 00:20:23;;;;;;;5.60;2.50;;;;;;;;;;5092163;28;20119;-77
2023/07/07 00:22:49;;;;;;;5.57;2.80;;;;;;;;;;5092979;28;20092;-76
2023/07/07 00:25:16;;;;;;;5.25;2.83;;;;;;;;;;5092456;28;20489;-77
2023/07/07 00:27:43;;;;;;;7.82;3.15;;;;;;;;;;5093042;28;20092;-77
2023/07/07 00:30:10;;;;;;;5.72;3.22;;;;;;;;;;5075186;28;20169;-77
2023/07/07 00:32:36;;;;;;;5.28;3.10;;;;;;;;;;5091641;28;20040;-77
2023/07/07 00:35:02;;;;;;;7.18;3.72;;;;;;;;;;5074868;28;20397;-77
2023/07/07 00:37:28;;;;;;;4.95;2.92;;;;;;;;;;5091923;28;20040;-77
2023/07/07 00:39:54;;;;;;;6.88;3.47;;;;;;;;;;5091831;28;20489;-77
2023/07/07 00:42:20;;;;;;;7.18;3.13;;;;;;;;;;5091699;28;20032;-77
2023/07/07 00:45:09;;;;;;;4.95;3.42;;;;;;;;;;5074627;28;20456;-77
2023/07/07 00:47:56;;;;;;;7.13;4.13;;;;;;;;;;5084234;28;20067;-77
2023/07/07 00:50:22;;;;;;;;;;;;;;;;;;5091738;28;20047;-77
2023/07/07 00:52:48;;;;;;;5.75;2.83;;;;;;;;;;5091345;28;19915;-77
2023/07/07 00:55:18;;;;;;;4.47;3.15;;;;;;;;;;5091232;28;20044;-77
2023/07/07 00:57:44;;;;;;;8.30;3.70;;;;;;;;;;5091057;28;20043;-77
2023/07/07 01:00:12;;;;;;;6.82;4.00;;;;;;;;;;5091332;28;20514;-77
2023/07/07 01:02:41;;;;;;;5.57;3.50;;;;;;;;;;5091074;28;20036;-77
2023/07/07 01:05:07;;;;;;;6.43;3.10;;;;;;;;;;5090775;28;20093;-77
2023/07/07 01:07:37;;;;;;;4.75;3.28;;;;;;;;;;5074118;28;20047;-77
2023/07/07 01:10:03;;;;;;;7.68;3.72;;;;;;;;;;5091080;28;20122;-77
2023/07/07 01:12:29;;;;;;;8.18;4.20;;;;;;;;;;5091621;28;20051;-77
2023/07/07 01:14:55;;;;;;;9.18;4.43;;;;;;;;;;5084262;28;20400;-77
2023/07/07 01:17:31;;;;;;;7.65;4.70;;;;;;;;;;5072536;28;20108;-77
2023/07/07 01:20:12;;;;;;;10.60;4.95;;;;;;;;;;5090890;28;20051;-76
2023/07/07 01:22:57;;;;;;;10.05;5.82;;;;;;;;;;5090941;28;20047;-77
2023/07/07 01:25:26;;;;;;;10.07;5.50;;;;;;;;;;5090742;28;20035;-77
2023/07/07 01:27:53;;;;;;;11.73;5.10;;;;;;;;;;5090974;28;20430;-78
2023/07/07 01:30:25;;;;;;;9.73;5.75;;;;;;;;;;5091160;28;20047;-77
2023/07/07 01:32:51;;;;;;;10.63;5.88;;;;;;;;;;5073976;28;20043;-77
2023/07/07 01:35:19;;;;;;;11.85;6.25;;;;;;;;;;5090530;28;20173;-77
2023/07/07 01:38:00;;;;;;;9.05;6.15;;;;;;;;;;5091898;28;20111;-77
2023/07/07 01:40:33;;;;;;;11.93;6.68;;;;;;;;;;5092404;28;20039;-80
2023/07/07 01:43:00;;;;;;;13.98;6.90;;;;;;;;;;5090666;28;20075;-81
2023/07/07 01:45:38;;;;;;;15.93;7.13;;;;;;;;;;5090525;28;20140;-80
2023/07/07 01:48:12;;;;;;;13.02;7.25;;;;;;;;;;5088283;28;20036;-81
2023/07/07 01:50:39;;;;;;;12.15;7.60;;;;;;;;;;5080567;28;20085;-80
2023/07/07 01:53:07;;;;;;;12.43;7.53;;;;;;;;;;5091240;28;20074;-80
2023/07/07 01:55:36;;;;;;;14.18;7.63;;;;;;;;;;5074040;28;20036;-80
2023/07/07 01:58:03;;;;;;;13.63;7.65;;;;;;;;;;5073699;28;20075;-80
2023/07/07 02:00:30;;;;;;;15.45;8.20;;;;;;;;;;5060202;28;20040;-81
2023/07/07 02:02:57;;;;;;;12.07;8.52;;;;;;;;;;5084613;28;20497;-80
2023/07/07 02:05:24;;;;;;;14.23;8.55;;;;;;;;;;5089335;28;20237;-80
2023/07/07 02:07:50;;;;;;;14.15;8.40;;;;;;;;;;5073060;28;20443;-80
2023/07/07 02:10:16;;;;;;;14.40;8.68;;;;;;;;;;5090614;28;20047;-81
2023/07/07 02:12:42;;;;;;;14.40;8.70;;;;;;;;;;5090647;28;20048;-80
2023/07/07 02:15:08;;;;;;;12.55;8.95;;;;;;;;;;5090531;28;20043;-81
2023/07/07 02:17:34;;;;;;;14.95;9.60;;;;;;;;;;5090957;28;20035;-80
2023/07/07 02:20:00;;;;;;;17.50;9.23;;;;;;;;;;5090681;28;20051;-80
2023/07/07 02:22:27;;;;;;;15.30;10.18;;;;;;;;;;5090751;28;20411;-81
2023/07/07 02:24:53;;;;;;;16.08;9.48;;;;;;;;;;5090529;28;20064;-80
2023/07/07 02:27:19;;;;;;;16.25;10.70;;;;;;;;;;5090401;28;20044;-80
2023/07/07 02:29:45;;;;;;;16.08;10.98;;;;;;;;;;5090499;28;20044;-81
2023/07/07 02:32:11;;;;;;;17.95;10.52;;;;;;;;;;5091571;28;20437;-80
2023/07/07 02:34:37;;;;;;;15.85;10.65;;;;;;;;;;5090529;28;20090;-79
2023/07/07 02:37:12;;;;;;;17.65;10.52;;;;;;;;;;5090337;28;20119;-80
2023/07/07 02:39:38;;;;;;;17.13;11.50;;;;;;;;;;5075129;28;20094;-80
2023/07/07 02:42:05;;;;;;;16.27;10.98;;;;;;;;;;5091291;28;20044;-81
2023/07/07 02:44:31;;;;;;;19.80;11.88;;;;;;;;;;5076319;28;20036;-80
2023/07/07 02:46:57;;;;;;;18.00;12.07;;;;;;;;;;5083455;28;20122;-80
2023/07/07 02:49:23;;;;;;;17.00;12.32;;;;;;;;;;5094326;28;20126;-80
2023/07/07 02:51:49;;;;;;;19.50;12.25;;;;;;;;;;5077118;28;20589;-80
2023/07/07 02:54:15;;;;;;;19.15;11.45;;;;;;;;;;5094408;28;20040;-80
2023/07/07 02:56:41;;;;;;;20.23;12.55;;;;;;;;;;5077274;28;20040;-80
2023/07/07 02:59:07;;;;;;;22.42;12.85;;;;;;;;;;5093438;28;20052;-81
2023/07/07 03:01:33;;;;;;;21.90;12.13;;;;;;;;;;5077177;28;20032;-80
2023/07/07 03:03:59;;;;;;;18.58;12.55;;;;;;;;;;5076783;28;20427;-80
2023/07/07 03:06:25;;;;;;;23.58;13.73;;;;;;;;;;5074757;28;20075;-80
2023/07/07 03:08:52;;;;;;;20.52;14.30;;;;;;;;;;5081564;28;20535;-80
2023/07/07 03:11:19;;;;;;;20.58;12.77;;;;;;;;;;5077409;28;20484;-80
2023/07/07 03:13:46;;;;;;;22.02;13.80;;;;;;;;;;5079729;28;20036;-80
2023/07/07 03:16:21;;;;;;;22.25;14.00;;;;;;;;;;5093541;28;20145;-80
2023/07/07 03:18:48;;;;;;;22.77;14.85;;;;;;;;;;5079426;28;20102;-80
2023/07/07 03:21:16;;;;;;;22.52;14.38;;;;;;;;;;5092770;28;20079;-77
2023/07/07 03:23:42;;;;;;;21.60;14.35;;;;;;;;;;5093433;28;20400;-77
2023/07/07 03:26:09;;;;;;;20.50;14.95;;;;;;;;;;5092509;28;20040;-77
2023/07/07 03:28:36;;;;;;;23.15;14.68;;;;;;;;;;5076253;28;20050;-77
2023/07/07 03:31:10;;;;;;;23.70;14.75;;;;;;;;;;5092500;28;20040;-77
2023/07/07 03:33:36;;;;;;;22.65;14.38;;;;;;;;;;5092879;28;20145;-77
2023/07/07 03:36:02;;;;;;;22.33;14.43;;;;;;;;;;5092609;28;20044;-80
2023/07/07 03:38:28;;;;;;;22.42;15.13;;;;;;;;;;5093375;28;20493;-80
2023/07/07 03:40:54;;;;;;;24.85;15.82;;;;;;;;;;5093708;28;20067;-81
2023/07/07 03:43:20;;;;;;;24.30;14.75;;;;;;;;;;5092887;28;20043;-81
2023/07/07 03:45:46;;;;;;;22.08;15.30;;;;;;;;;;5093066;28;20040;-80
2023/07/07 03:48:12;;;;;;;27.33;15.50;;;;;;;;;;5078758;28;20043;-78
2023/07/07 03:50:38;;;;;;;23.95;15.60;;;;;;;;;;5092700;28;20048;-81
2023/07/07 03:53:05;;;;;;;22.77;15.50;;;;;;;;;;5075203;28;20039;-80
2023/07/07 03:55:31;;;;;;;22.40;15.10;;;;;;;;;;5076589;28;20488;-80
2023/07/07 03:57:57;;;;;;;23.88;15.55;;;;;;;;;;5092524;28;20048;-80
2023/07/07 04:00:24;;;;;;;21.42;15.40;;;;;;;;;;5092846;28;20036;-80
2023/07/07 04:02:50;;;;;;;24.10;15.50;;;;;;;;;;5091838;28;20592;-81
2023/07/07 04:05:16;;;;;;;23.38;15.32;;;;;;;;;;5091456;28;21103;-81
2023/07/07 04:07:42;;;;;;;27.77;14.82;;;;;;;;;;5065889;28;20519;-79
2023/07/07 04:10:08;;;;;;;21.02;14.80;;;;;;;;;;5091967;28;20040;-81
2023/07/07 04:12:35;;;;;;;21.00;14.65;;;;;;;;;;5093572;28;20119;-81
2023/07/07 04:15:01;;;;;;;20.52;14.05;;;;;;;;;;5092380;28;20445;-81
2023/07/07 04:17:27;;;;;;;20.00;13.70;;;;;;;;;;5075395;28;20043;-81
2023/07/07 04:19:54;;;;;;;18.33;13.45;;;;;;;;;;5092210;28;20047;-80
2023/07/07 04:22:20;;;;;;;18.35;13.20;;;;;;;;;;5091608;28;20540;-80
2023/07/07 04:24:46;;;;;;;20.60;13.23;;;;;;;;;;5085360;28;20040;-81
2023/07/07 04:27:12;;;;;;;21.77;13.18;;;;;;;;;;5075066;28;20042;-80
2023/07/07 04:29:38;;;;;;;17.77;12.70;;;;;;;;;;5085148;28;20119;-80
2023/07/07 04:32:05;;;;;;;21.13;12.93;;;;;;;;;;5084590;28;20048;-80
2023/07/07 04:34:31;;;;;;;18.75;12.38;;;;;;;;;;5091864;28;20044;-81
2023/07/07 04:36:57;;;;;;;19.38;12.48;;;;;;;;;;5091703;28;20039;-81
2023/07/07 04:39:23;;;;;;;17.33;11.45;;;;;;;;;;5075100;28;20071;-81
2023/07/07 04:41:52;;;;;;;17.02;11.60;;;;;;;;;;5092008;28;20115;-80
2023/07/07 04:44:18;;;;;;;17.50;11.90;;;;;;;;;;5091336;28;20036;-81
2023/07/07 04:46:44;;;;;;;19.02;11.48;;;;;;;;;;5074781;28;20039;-80
2023/07/07 04:49:11;;;;;;;17.50;12.30;;;;;;;;;;5091292;28;20054;-80
2023/07/07 04:51:38;;;;;;;15.88;10.95;;;;;;;;;;5091906;28;20051;-81
2023/07/07 04:54:04;;;;;;;17.30;11.20;;;;;;;;;;5074418;28;20067;-80
2023/07/07 04:56:32;;;;;;;18.10;11.70;;;;;;;;;;5075322;28;20067;-81
2023/07/07 04:58:59;;;;;;;19.02;11.75;;;;;;;;;;5091875;28;20048;-79
2023/07/07 05:01:29;;;;;;;16.50;11.60;;;;;;;;;;5091258;28;20131;-80
2023/07/07 05:03:57;;;;;;;15.88;11.20;;;;;;;;;;5091318;28;20048;-80
2023/07/07 05:06:24;;;;;;;15.00;11.45;;;;;;;;;;5090710;28;20051;-79
2023/07/07 05:08:50;;;;;;;16.02;11.20;;;;;;;;;;5091573;28;20052;-80
2023/07/07 05:11:17;;;;;;;14.73;11.32;;;;;;;;;;5091681;28;20404;-79
2023/07/07 05:13:46;;;;;;;15.80;11.45;;;;;;;;;;5077457;28;20039;-80
2023/07/07 05:16:14;;;;;;;16.08;10.82;;;;;;;;;;5085820;28;20048;-81
2023/07/07 05:18:40;;;;;;;14.40;10.43;;;;;;;;;;5087937;28;20047;-79
2023/07/07 05:21:07;;;;;;;16.38;10.93;;;;;;;;;;5074470;28;20040;-80
2023/07/07 05:23:34;;;;;;;18.13;10.38;;;;;;;;;;5091455;28;20040;-79
2023/07/07 05:26:00;;;;;;;17.73;10.32;;;;;;;;;;5090678;28;20047;-79
2023/07/07 05:28:26;;;;;;;14.55;10.63;;;;;;;;;;5074642;28;20361;-80
2023/07/07 05:30:52;;;;;;;14.52;10.77;;;;;;;;;;5091401;28;20032;-80
2023/07/07 05:33:19;;;;;;;13.80;9.85;;;;;;;;;;5090877;28;20036;-80
2023/07/07 05:35:46;;;;;;;13.63;10.30;;;;;;;;;;5092527;28;20036;-80
2023/07/07 05:38:12;;;;;;;15.63;10.43;;;;;;;;;;5090425;28;20112;-79
2023/07/07 05:40:42;;;;;;;13.35;9.85;;;;;;;;;;5074474;28;20099;-81
2023/07/07 05:43:08;;;;;;;13.93;9.60;;;;;;;;;;5091191;28;20047;-81
2023/07/07 05:45:35;;;;;;;13.65;10.73;;;;;;;;;;5074095;28;20032;-77
2023/07/07 05:48:01;;;;;;;12.15;9.55;;;;;;;;;;5090723;28;20527;-77
2023/07/07 05:50:28;;;;;;;12.35;9.30;;;;;;;;;;5074013;28;20080;-76
2023/07/07 05:52:54;;;;;;;12.50;9.15;;;;;;;;;;5076164;28;20040;-77
2023/07/07 05:55:25;;;;;;;12.10;9.15;;;;;;;;;;5090644;28;20094;-77
2023/07/07 05:57:51;;;;;;;13.82;9.75;;;;;;;;;;5090741;28;20388;-78
2023/07/07 06:00:17;;;;;;;14.35;9.75;;;;;;;;;;5090490;28;20114;-77
2023/07/07 06:02:43;;;;;;;13.02;9.55;;;;;;;;;;5090827;28;20042;-77
2023/07/07 06:05:09;;;;;;;13.80;9.43;;;;;;;;;;5090705;28;20408;-76
2023/07/07 06:07:35;;;;;;;12.63;8.73;;;;;;;;;;5073583;28;20132;-76
2023/07/07 06:10:02;;;;;;;14.20;8.93;;;;;;;;;;5091376;28;20507;-79
2023/07/07 06:12:28;;;;;;;12.70;8.95;;;;;;;;;;5091522;28;20075;-82
2023/07/07 06:14:55;;;;;;;13.45;8.55;;;;;;;;;;5074097;28;20040;-78
2023/07/07 06:17:21;;;;;;;14.32;9.20;;;;;;;;;;5093583;28;20038;-77
2023/07/07 06:19:47;;;;;;;11.52;8.48;;;;;;;;;;5077276;28;20050;-78
2023/07/07 06:22:13;;;;;;;9.68;8.38;;;;;;;;;;5094704;28;20048;-76
2023/07/07 06:24:39;;;;;;;12.77;8.68;;;;;;;;;;5094126;28;20044;-76
2023/07/07 06:27:05;;;;;;;10.68;7.63;;;;;;;;;;5094066;28;20044;-75
2023/07/07 06:29:35;;;;;;;10.55;8.02;;;;;;;;;;5093759;28;20043;-76
2023/07/07 06:32:01;;;;;;;11.77;8.07;;;;;;;;;;5081569;28;20077;-76
2023/07/07 06:34:27;;;;;;;11.43;7.32;;;;;;;;;;5075750;28;20115;-76
2023/07/07 06:36:53;;;;;;;9.70;7.40;;;;;;;;;;5094325;28;20042;-77
2023/07/07 06:39:19;;;;;;;12.07;7.80;;;;;;;;;;5060645;28;20036;-76
2023/07/07 06:41:45;;;;;;;11.05;7.38;;;;;;;;;;5093896;28;20075;-77
2023/07/07 06:44:11;;;;;;;10.43;7.00;;;;;;;;;;5094410;28;20504;-77
2023/07/07 06:46:37;;;;;;;10.35;6.95;;;;;;;;;;5093591;28;20546;-75
2023/07/07 06:49:04;;;;;;;9.38;6.63;;;;;;;;;;5095263;28;20036;-76
2023/07/07 06:51:31;;;;;;;13.18;6.70;;;;;;;;;;5094917;28;20056;-75
2023/07/07 06:53:58;;;;;;;14.85;7.32;;;;;;;;;;5094159;28;20054;-78
2023/07/07 06:56:25;;;;;;;9.00;6.72;;;;;;;;;;5093177;28;20040;-78
2023/07/07 06:58:51;;;;;;;11.00;6.35;;;;;;;;;;5093704;28;20126;-78
2023/07/07 07:01:17;;;;;;;13.23;6.40;;;;;;;;;;5093865;28;20507;-78
2023/07/07 07:03:43;;;;;;;8.93;6.32;;;;;;;;;;5093485;28;20115;-79
2023/07/07 07:06:10;;;;;;;10.98;6.28;;;;;;;;;;5093836;28;20389;-79
2023/07/07 07:08:36;;;;;;;10.13;7.03;;;;;;;;;;5093269;28;20040;-78
2023/07/07 07:11:02;;;;;;;9.32;6.13;;;;;;;;;;5093203;28;20134;-77
2023/07/07 07:13:28;;;;;;;9.35;5.68;;;;;;;;;;5092136;28;20564;-78
2023/07/07 07:15:55;;;;;;;13.13;5.72;;;;;;;;;;5093857;28;20044;-77
2023/07/07 07:18:21;;;;;;;9.23;5.30;;;;;;;;;;5093269;28;20055;-76
2023/07/07 07:20:51;;;;;;;10.27;5.45;;;;;;;;;;5092551;28;20032;-76
2023/07/07 07:23:18;;;;;;;6.82;4.93;;;;;;;;;;5092126;28;20489;-76
2023/07/07 07:25:44;;;;;;;12.30;5.18;;;;;;;;;;5092301;28;20043;-75
2023/07/07 07:28:11;;;;;;;13.98;5.72;;;;;;;;;;5092330;28;20516;-76
2023/07/07 07:30:38;;;;;;;9.60;4.63;;;;;;;;;;5092729;28;20036;-76
2023/07/07 07:33:11;;;;;;;6.80;4.40;;;;;;;;;;5092793;28;20117;-75
2023/07/07 07:35:37;;;;;;;7.78;4.57;;;;;;;;;;5087098;28;20036;-75
2023/07/07 07:38:03;;;;;;;7.25;4.30;;;;;;;;;;5076619;28;20507;-75
2023/07/07 07:40:29;;;;;;;7.57;4.10;;;;;;;;;;5091628;28;20118;-76
2023/07/07 07:42:55;;;;;;;7.78;4.43;;;;;;;;;;5092998;28;20058;-76
2023/07/07 07:45:22;;;;;;;6.18;3.80;;;;;;;;;;5092669;28;20055;-75
2023/07/07 07:47:48;;;;;;;5.57;3.70;;;;;;;;;;5091766;28;20040;-76
2023/07/07 07:50:16;;;;;;;5.47;3.53;;;;;;;;;;5091491;28;20047;-76
2023/07/07 07:52:42;;;;;;;5.85;3.50;;;;;;;;;;5091220;28;20519;-78
2023/07/07 07:55:09;;;;;;;5.93;3.47;;;;;;;;;;5090781;28;20040;-76
2023/07/07 07:57:35;;;;;;;6.72;3.47;;;;;;;;;;5074313;28;20435;-76
2023/07/07 08:00:01;;;;;;;7.22;3.40;;;;;;;;;;5091636;28;20093;-76
2023/07/07 08:02:27;;;;;;;6.32;3.10;;;;;;;;;;5091772;28;20036;-76
2023/07/07 08:04:53;;;;;;;10.52;3.50;;;;;;;;;;5091341;28;20052;-76
2023/07/07 08:07:19;;;;;;;8.68;3.20;;;;;;;;;;5092047;28;20049;-79
2023/07/07 08:09:45;;;;;;;8.07;3.20;;;;;;;;;;5091041;28;20040;-79
2023/07/07 08:12:11;;;;;;;5.60;2.80;;;;;;;;;;5073244;28;20041;-78
2023/07/07 08:14:37;;;;;;;5.90;2.47;;;;;;;;;;5091836;28;20051;-78
2023/07/07 08:17:06;;;;;;;3.40;2.20;;;;;;;;;;5093090;28;20510;-78
2023/07/07 08:19:34;;;;;;;6.18;2.78;;;;;;;;;;5091583;28;20413;-77
2023/07/07 08:22:01;;;;;;;4.65;2.35;;;;;;;;;;5092058;28;20044;-75
2023/07/07 08:24:27;;;;;;;6.82;2.70;;;;;;;;;;5092384;28;20059;-76
2023/07/07 08:26:53;;;;;;;6.65;2.88;;;;;;;;;;5093070;28;20058;-78
2023/07/07 08:29:20;;;;;;;7.22;2.40;;;;;;;;;;5078070;28;20400;-78
2023/07/07 08:31:46;;;;;;;5.80;2.80;;;;;;;;;;5091251;28;20032;-75
2023/07/07 08:34:12;;;;;;;9.98;2.70;;;;;;;;;;5091894;28;20492;-75
2023/07/07 08:36:38;;;;;;;6.72;3.60;;;;;;;;;;5085025;28;20067;-75
2023/07/07 08:39:12;;;;;;;10.52;2.92;;;;;;;;;;5090455;28;20442;-75
2023/07/07 08:41:46;;;;;;;10.55;5.30;;;;;;;;;;5091321;28;20567;-75
2023/07/07 08:44:15;;;;;;;8.40;3.80;;;;;;;;;;5091796;28;20093;-75
2023/07/07 08:46:52;;;;;;;6.18;3.03;;;;;;;;;;5090901;28;20044;-74
2023/07/07 08:49:41;;;;;;;7.10;2.78;;;;;;;;;;5092685;28;20089;-74
2023/07/07 08:52:10;;;;;;;28.77;4.05;;;;;;;;;;5081375;28;20075;-75
2023/07/07 08:54:49;;;;;;;11.20;4.00;;;;;;;;;;5092463;28;20457;-74
2023/07/07 08:57:17;;;;;;;6.22;3.10;;;;;;;;;;5091680;28;20044;-75
2023/07/07 08:59:56;;;;;;;7.20;3.17;;;;;;;;;;5090842;28;20059;-81
2023/07/07 09:02:32;;;;;;;7.30;2.60;;;;;;;;;;5091196;28;20036;-79
2023/07/07 09:04:58;;;;;;;3.55;2.00;;;;;;;;;;5090428;28;20105;-74
2023/07/07 09:07:43;;;;;;;15.98;3.22;;;;;;;;;;5091169;28;20051;-74
2023/07/07 09:10:09;;;;;;;6.72;2.28;;;;;;;;;;5090279;28;20118;-74
2023/07/07 09:12:38;;;;;;;8.05;2.20;;;;;;;;;;5092226;28;20050;-74
2023/07/07 09:15:11;;;;;;;4.80;2.40;;;;;;;;;;5090870;28;20122;-74
2023/07/07 09:17:40;;;;;;;7.80;2.90;;;;;;;;;;5074729;28;20472;-73
2023/07/07 09:20:07;;;;;;;11.18;3.42;;;;;;;;;;5089554;28;20040;-76
2023/07/07 09:22:36;;;;;;;5.13;2.30;;;;;;;;;;5074384;28;20036;-77
2023/07/07 09:25:02;;;;;;;5.28;2.30;;;;;;;;;;5091054;28;20032;-76
2023/07/07 09:27:40;;;;;;;5.50;2.20;;;;;;;;;;5091171;28;20100;-78
2023/07/07 09:30:13;;;;;;;5.75;2.20;;;;;;;;;;5092183;28;20062;-78
2023/07/07 09:32:40;;;;;;;6.20;2.22;;;;;;;;;;5089093;28;20116;-79
2023/07/07 09:35:11;;;;;;;4.70;2.10;;;;;;;;;;5092157;28;20152;-77
2023/07/07 09:37:41;;;;;;;5.72;2.20;;;;;;;;;;5091218;28;20066;-78
2023/07/07 09:40:14;;;;;;;3.47;2.00;;;;;;;;;;5090768;28;20055;-77
2023/07/07 09:42:45;;;;;;;3.50;1.90;;;;;;;;;;5092166;28;20111;-77
2023/07/07 09:45:20;;;;;;;5.35;2.15;;;;;;;;;;5090615;28;20032;-75
2023/07/07 09:47:46;;;;;;;5.30;2.30;;;;;;;;;;5073137;28;20044;-80
2023/07/07 09:50:30;;;;;;;3.78;2.15;;;;;;;;;;5088893;28;20040;-81
2023/07/07 09:53:19;;;;;;;9.15;2.30;;;;;;;;;;5094301;28;20063;-81
2023/07/07 09:55:45;;;;;;;5.00;2.05;;;;;;;;;;5088367;28;20488;-85
2023/07/07 09:58:31;;;;;;;5.47;2.30;;;;;;;;;;5096283;28;20036;-85
2023/07/07 10:01:02;;;;;;;4.25;2.17;;;;;;;;;;5077754;28;20048;-84
2023/07/07 10:03:43;;;;;;;5.47;2.58;;;;;;;;;;5094126;28;20024;-87
2023/07/07 10:06:31;;;;;;;9.73;2.55;;;;;;;;;;5095798;28;20087;-82
2023/07/07 10:08:58;;;;;;;4.85;2.35;;;;;;;;;;5095030;28;20161;-84
2023/07/07 10:11:28;;;;;;;3.70;2.13;;;;;;;;;;5096558;28;20043;-82
2023/07/07 10:13:55;;;;;;;3.13;2.05;;;;;;;;;;5091027;28;20032;-82
2023/07/07 10:16:35;;;;;;;3.63;2.17;;;;;;;;;;5094836;28;20555;-78
2023/07/07 10:19:06;;;;;;;3.97;2.47;;;;;;;;;;5093564;28;20043;-79
2023/07/07 10:21:33;;;;;;;3.90;2.10;;;;;;;;;;5094989;28;20044;-80
2023/07/07 10:23:59;;;;;;;4.47;2.28;;;;;;;;;;5095667;28;20040;-79
2023/07/07 10:26:25;;;;;;;4.57;2.20;;;;;;;;;;5077854;28;20043;-81
2023/07/07 10:28:52;;;;;;;4.57;2.38;;;;;;;;;;5077059;28;20047;-73
2023/07/07 10:31:18;;;;;;;5.65;2.45;;;;;;;;;;5095300;28;20140;-77
2023/07/07 10:33:48;;;;;;;4.63;2.47;;;;;;;;;;5095337;28;20044;-75
2023/07/07 10:36:18;;;;;;;5.10;2.60;;;;;;;;;;5093875;28;20051;-75
2023/07/07 10:38:45;;;;;;;4.55;2.28;;;;;;;;;;5076842;28;20122;-76
2023/07/07 10:41:11;;;;;;;4.90;2.30;;;;;;;;;;5092255;28;20044;-76
2023/07/07 10:43:37;;;;;;;5.63;2.33;;;;;;;;;;5094030;28;20067;-72
2023/07/07 10:46:03;;;;;;;4.65;2.50;;;;;;;;;;5093572;28;20101;-73
2023/07/07 10:48:29;;;;;;;6.03;2.08;;;;;;;;;;5093347;28;20038;-79
2023/07/07 10:51:04;;;;;;;3.72;2.13;;;;;;;;;;5093797;28;20043;-82
2023/07/07 10:53:46;;;;;;;3.83;2.10;;;;;;;;;;5093606;28;20109;-77
2023/07/07 10:56:12;;;;;;;3.90;2.05;;;;;;;;;;5093910;28;20093;-79
2023/07/07 10:58:48;;;;;;;3.95;1.90;;;;;;;;;;5093689;28;20039;-80
2023/07/07 11:01:41;;;;;;;4.55;2.53;;;;;;;;;;5093320;28;20048;-81
2023/07/07 11:04:25;;;;;;;4.53;2.30;;;;;;;;;;5092454;28;20397;-71
2023/07/07 11:06:52;;;;;;;5.35;2.40;;;;;;;;;;5093645;28;20496;-74
2023/07/07 11:09:29;;;;;;;6.78;2.38;;;;;;;;;;5092477;28;20040;-74
2023/07/07 11:12:07;;;;;;;4.57;2.20;;;;;;;;;;5091962;28;20046;-74
2023/07/07 11:14:33;;;;;;;3.30;1.90;;;;;;;;;;5076542;28;20047;-72
2023/07/07 11:17:08;;;;;;;4.70;2.30;;;;;;;;;;5091918;28;20047;-73
2023/07/07 11:19:34;;;;;;;;;;;;;;;;;;5094680;28;20039;-74
2023/07/07 11:22:26;;;;;;;5.30;2.10;;;;;;;;;;5092366;28;19920;-74
2023/07/07 11:25:01;;;;;;;3.70;2.30;;;;;;;;;;5072620;28;20135;-74
2023/07/07 11:27:27;;;;;;;;;;;;;;;;;;5092341;28;20484;-74
2023/07/07 11:30:05;;;;;;;4.40;2.38;;;;;;;;;;5089742;28;19916;-74
2023/07/07 11:32:44;;;;;;;4.78;2.42;;;;;;;;;;5092006;28;20052;-75
2023/07/07 11:35:19;;;;;;;4.68;2.50;;;;;;;;;;5091184;28;20341;-83
2023/07/07 11:37:48;;;;;;;4.13;2.15;;;;;;;;;;5092361;28;20401;-83
2023/07/07 11:40:32;;;;;;;10.13;1.95;;;;;;;;;;5092428;28;20040;-84
2023/07/07 11:43:07;;;;;;;4.35;2.20;;;;;;;;;;5092646;28;20044;-77
2023/07/07 11:45:53;;;;;;;4.22;2.38;;;;;;;;;;5075121;28;20028;-79
2023/07/07 11:48:26;;;;;;;5.13;2.40;;;;;;;;;;5078534;28;20039;-78
2023/07/07 11:50:58;;;;;;;8.63;2.65;;;;;;;;;;5094041;28;20047;-83
2023/07/07 11:53:47;;;;;;;4.80;2.20;;;;;;;;;;5090881;28;20456;-70
2023/07/07 11:56:21;;;;;;;5.60;2.67;;;;;;;;;;5092016;28;20484;-71
2023/07/07 11:58:53;;;;;;;5.25;2.03;;;;;;;;;;5091574;28;20073;-72
2023/07/07 12:01:22;;;;;;;4.03;2.20;;;;;;;;;;5091890;28;20043;-72
2023/07/07 12:04:06;;;;;;;5.70;2.30;;;;;;;;;;5092687;28;20028;-72
2023/07/07 12:06:38;;;;;;;5.30;2.22;;;;;;;;;;5093258;28;20458;-73
2023/07/07 12:09:13;;;;;;;4.80;2.45;;;;;;;;;;5091400;28;20036;-72
2023/07/07 12:11:41;;;;;;;5.32;2.03;;;;;;;;;;5092425;28;20046;-70
2023/07/07 12:14:13;;;;;;;6.07;2.22;;;;;;;;;;5091809;28;20052;-71
2023/07/07 12:16:42;;;;;;;4.72;2.30;;;;;;;;;;5092041;28;20040;-71
2023/07/07 12:19:31;;;;;;;5.20;2.38;;;;;;;;;;5093017;28;20036;-69
2023/07/07 12:21:58;;;;;;;5.28;2.50;;;;;;;;;;5090585;28;20044;-70
2023/07/07 12:24:45;;;;;;;5.82;2.38;;;;;;;;;;5068416;28;20085;-70
2023/07/07 12:27:26;;;;;;;5.13;2.70;;;;;;;;;;5091285;28;20071;-70
2023/07/07 12:29:53;;;;;;;9.85;2.55;;;;;;;;;;5093059;28;20478;-69
2023/07/07 12:32:19;;;;;;;5.97;2.50;;;;;;;;;;5091549;28;20064;-69
2023/07/07 12:35:02;;;;;;;3.83;2.08;;;;;;;;;;5092769;28;20040;-69
2023/07/07 12:37:29;;;;;;;4.00;2.25;;;;;;;;;;5092086;28;20040;-69
2023/07/07 12:39:55;;;;;;;4.25;2.35;;;;;;;;;;5089675;28;20043;-70
2023/07/07 12:42:22;;;;;;;4.88;2.45;;;;;;;;;;5087761;28;20032;-71
2023/07/07 12:44:49;;;;;;;4.22;2.28;;;;;;;;;;5072880;28;20067;-69
2023/07/07 12:47:33;;;;;;;4.43;2.58;;;;;;;;;;5092243;28;20028;-73
2023/07/07 12:50:01;;;;;;;5.00;2.60;;;;;;;;;;5088953;28;20055;-74
2023/07/07 12:52:30;;;;;;;4.15;2.00;;;;;;;;;;5090724;28;20044;-75
2023/07/07 12:55:05;;;;;;;3.45;2.25;;;;;;;;;;5091208;28;20043;-68
2023/07/07 12:57:31;;;;;;;;;;;;;;;;;;5092975;28;20036;-69
2023/07/07 13:00:17;;;;;;;4.07;2.28;;;;;;;;;;5092178;28;19952;-68
2023/07/07 13:03:04;;;;;;;3.67;2.30;;;;;;;;;;5092461;28;20040;-68
2023/07/07 13:05:32;;;;;;;4.32;2.30;;;;;;;;;;5077723;28;20127;-70
2023/07/07 13:08:00;;;;;;;6.63;2.17;;;;;;;;;;5091546;28;20366;-68
2023/07/07 13:10:33;;;;;;;3.38;2.10;;;;;;;;;;5091735;28;20148;-68
2023/07/07 13:13:36;;;;;;;4.05;2.40;;;;;;;;;;5092472;28;20485;-69
2023/07/07 13:16:02;;;;;;;4.05;2.38;;;;;;;;;;5010102;28;20068;-68
2023/07/07 13:18:28;;;;;;;4.10;2.20;;;;;;;;;;5071044;28;20131;-70
2023/07/07 13:20:54;;;;;;;4.53;2.38;;;;;;;;;;5091185;28;20463;-69
2023/07/07 13:23:23;;;;;;;4.47;2.25;;;;;;;;;;5091148;28;20051;-71
2023/07/07 13:25:49;;;;;;;6.85;2.28;;;;;;;;;;5090380;28;20032;-70
2023/07/07 13:28:16;;;;;;;4.32;2.28;;;;;;;;;;5091852;28;20035;-71
2023/07/07 13:30:44;;;;;;;8.02;2.35;;;;;;;;;;5090536;28;20097;-72
2023/07/07 13:33:20;;;;;;;3.90;2.10;;;;;;;;;;5090418;28;20048;-71
2023/07/07 13:35:55;;;;;;;4.25;2.30;;;;;;;;;;5091077;28;20036;-71
2023/07/07 13:38:25;;;;;;;4.10;2.50;;;;;;;;;;5092377;28;20572;-71
2023/07/07 13:40:51;;;;;;;3.70;2.25;;;;;;;;;;5090666;28;20118;-70
2023/07/07 13:43:25;;;;;;;6.53;2.20;;;;;;;;;;5089993;28;20111;-70
2023/07/07 13:46:02;;;;;;;7.40;2.80;;;;;;;;;;5081885;28;20045;-72
2023/07/07 13:48:29;;;;;;;12.25;2.60;;;;;;;;;;5084977;28;20043;-71
2023/07/07 13:50:55;;;;;;;9.57;2.30;;;;;;;;;;5090271;28;20044;-71
2023/07/07 13:53:22;;;;;;;12.35;2.40;;;;;;;;;;5091237;28;20047;-72
2023/07/07 13:55:50;;;;;;;10.52;2.55;;;;;;;;;;5084950;28;20132;-71
2023/07/07 13:58:18;;;;;;;4.20;2.35;;;;;;;;;;5091608;28;20499;-71
2023/07/07 14:00:46;;;;;;;4.35;2.08;;;;;;;;;;5087594;28;20051;-74
2023/07/07 14:03:20;;;;;;;3.50;2.10;;;;;;;;;;5091364;28;20032;-74
2023/07/07 14:05:52;;;;;;;4.38;2.33;;;;;;;;;;5090074;28;20053;-74
2023/07/07 14:08:23;;;;;;;4.03;2.10;;;;;;;;;;5089574;28;20078;-75
2023/07/07 14:10:50;;;;;;;5.60;2.17;;;;;;;;;;5092207;28;20040;-77
2023/07/07 14:13:21;;;;;;;5.18;2.30;;;;;;;;;;5091741;28;20076;-78
2023/07/07 14:15:59;;;;;;;6.07;2.55;;;;;;;;;;5088755;28;20048;-77
2023/07/07 14:18:28;;;;;;;3.78;2.10;;;;;;;;;;5089980;28;20464;-74
2023/07/07 14:20:55;;;;;;;3.53;2.10;;;;;;;;;;5089244;28;20507;-74
2023/07/07 14:23:21;;;;;;;3.55;2.13;;;;;;;;;;5090365;28;20043;-73
2023/07/07 14:25:48;;;;;;;3.85;2.08;;;;;;;;;;5091802;28;20038;-73
2023/07/07 14:28:19;;;;;;;5.57;2.35;;;;;;;;;;5072878;28;20070;-74
2023/07/07 14:30:47;;;;;;;3.75;2.10;;;;;;;;;;5090594;28;20044;-73
2023/07/07 14:33:13;;;;;;;3.80;2.13;;;;;;;;;;5091271;28;20032;-74
2023/07/07 14:35:41;;;;;;;4.00;2.10;;;;;;;;;;5091484;28;20028;-75
2023/07/07 14:38:24;;;;;;;3.92;2.17;;;;;;;;;;5092262;28;20063;-74
2023/07/07 14:40:53;;;;;;;4.00;2.10;;;;;;;;;;5092936;28;20048;-74
2023/07/07 14:43:25;;;;;;;3.22;2.10;;;;;;;;;;5090323;28;20415;-74
2023/07/07 14:46:05;;;;;;;4.47;2.30;;;;;;;;;;5093292;28;20040;-79
2023/07/07 14:48:48;;;;;;;4.15;2.20;;;;;;;;;;5091912;28;20097;-74